sensor_id;sensor_type;location;lat;lon;timestamp;P1;durP1;ratioP1;P2;durP2;ratioP2
12869;SDS011;6503;48.572;13.460;2023-02-01T00:02:20;7.30;;;4.70;;
12869;SDS011;6503;48.572;13.460;2023-02-01T00:04:52;8.93;;;4.28;;
12869;SDS011;6503;48.572;13.460;2023-02-01T00:07:23;5.88;;;3.78;;
12869;SDS011;6503;48.572;13.460;2023-02-01T00:09:51;7.35;;;3.95;;
12869;SDS011;6503;48.572;13.460;2023-02-01T00:12:21;8.02;;;3.83;;
12869;SDS011;6503;48.572;13.460;2023-02-01T00:14:50;5.63;;;3.50;;
12869;SDS011;6503;48.572;13.460;2023-02-01T00:17:18;6.60;;;3.35;;
12869;SDS011;6503;48.572;13.460;2023-02-01T00:19:46;6.30;;;3.38;;
12869;SDS011;6503;48.572;13.460;2023-02-01T00:22:19;6.57;;;3.47;;
12869;SDS011;6503;48.572;13.460;2023-02-01T00:24:49;8.57;;;3.53;;
12869;SDS011;6503;48.572;13.460;2023-02-01T00:27:18;7.50;;;3.28;;
12869;SDS011;6503;48.572;13.460;2023-02-01T00:29:46;5.85;;;3.45;;
12869;SDS011;6503;48.572;13.460;2023-02-01T00:32:14;5.28;;;2.95;;
12869;SDS011;6503;48.572;13.460;2023-02-01T00:34:41;6.00;;;3.45;;
12869;SDS011;6503;48.572;13.460;2023-02-01T00:37:08;7.88;;;3.30;;
12869;SDS011;6503;48.572;13.460;2023-02-01T00:39:39;6.55;;;3.05;;
12869;SDS011;6503;48.572;13.460;2023-02-01T00:42:06;7.20;;;3.60;;
12869;SDS011;6503;48.572;13.460;2023-02-01T00:44:36;4.95;;;3.25;;
12869;SDS011;6503;48.572;13.460;2023-02-01T00:47:04;4.55;;;3.30;;
12869;SDS011;6503;48.572;13.460;2023-02-01T00:49:33;8.63;;;3.25;;
12869;SDS011;6503;48.572;13.460;2023-02-01T00:52:03;5.45;;;3.60;;
12869;SDS011;6503;48.572;13.460;2023-02-01T00:54:32;5.38;;;3.42;;
12869;SDS011;6503;48.572;13.460;2023-02-01T00:57:02;6.90;;;3.25;;
12869;SDS011;6503;48.572;13.460;2023-02-01T00:59:29;7.10;;;3.50;;
12869;SDS011;6503;48.572;13.460;2023-02-01T01:02:01;6.50;;;3.30;;
12869;SDS011;6503;48.572;13.460;2023-02-01T01:04:29;6.05;;;3.70;;
12869;SDS011;6503;48.572;13.460;2023-02-01T01:06:57;5.30;;;3.22;;
12869;SDS011;6503;48.572;13.460;2023-02-01T01:09:26;5.88;;;3.30;;
12869;SDS011;6503;48.572;13.460;2023-02-01T01:11:56;8.02;;;3.75;;
12869;SDS011;6503;48.572;13.460;2023-02-01T01:14:27;6.25;;;3.63;;
12869;SDS011;6503;48.572;13.460;2023-02-01T01:16:55;5.88;;;3.47;;
12869;SDS011;6503;48.572;13.460;2023-02-01T01:19:23;4.82;;;3.42;;
12869;SDS011;6503;48.572;13.460;2023-02-01T01:21:50;6.88;;;3.40;;
12869;SDS011;6503;48.572;13.460;2023-02-01T01:24:20;4.20;;;3.40;;
12869;SDS011;6503;48.572;13.460;2023-02-01T01:26:48;5.57;;;3.47;;
12869;SDS011;6503;48.572;13.460;2023-02-01T01:29:26;5.45;;;3.35;;
12869;SDS011;6503;48.572;13.460;2023-02-01T01:31:54;6.25;;;3.15;;
12869;SDS011;6503;48.572;13.460;2023-02-01T01:34:25;4.57;;;3.25;;
12869;SDS011;6503;48.572;13.460;2023-02-01T01:36:53;7.30;;;3.40;;
12869;SDS011;6503;48.572;13.460;2023-02-01T01:39:22;5.45;;;3.50;;
12869;SDS011;6503;48.572;13.460;2023-02-01T01:41:53;5.00;;;3.35;;
12869;SDS011;6503;48.572;13.460;2023-02-01T01:47:26;5.28;;;3.47;;
12869;SDS011;6503;48.572;13.460;2023-02-01T01:50:04;7.47;;;3.55;;
12869;SDS011;6503;48.572;13.460;2023-02-01T01:52:35;6.20;;;3.60;;
12869;SDS011;6503;48.572;13.460;2023-02-01T01:55:05;8.45;;;3.50;;
12869;SDS011;6503;48.572;13.460;2023-02-01T01:57:37;4.95;;;3.25;;
12869;SDS011;6503;48.572;13.460;2023-02-01T02:00:14;7.57;;;3.30;;
12869;SDS011;6503;48.572;13.460;2023-02-01T02:02:46;8.55;;;4.15;;
12869;SDS011;6503;48.572;13.460;2023-02-01T02:05:31;5.95;;;3.38;;
12869;SDS011;6503;48.572;13.460;2023-02-01T02:07:59;5.97;;;3.03;;
12869;SDS011;6503;48.572;13.460;2023-02-01T02:10:30;5.00;;;3.67;;
12869;SDS011;6503;48.572;13.460;2023-02-01T02:13:11;7.20;;;3.60;;
12869;SDS011;6503;48.572;13.460;2023-02-01T02:15:50;6.22;;;3.38;;
12869;SDS011;6503;48.572;13.460;2023-02-01T02:18:28;6.18;;;3.78;;
12869;SDS011;6503;48.572;13.460;2023-02-01T02:21:21;6.05;;;3.80;;
12869;SDS011;6503;48.572;13.460;2023-02-01T02:24:13;5.22;;;3.25;;
12869;SDS011;6503;48.572;13.460;2023-02-01T02:30:14;9.07;;;3.67;;
12869;SDS011;6503;48.572;13.460;2023-02-01T02:36:16;4.55;;;3.22;;
12869;SDS011;6503;48.572;13.460;2023-02-01T02:38:52;5.38;;;3.25;;
12869;SDS011;6503;48.572;13.460;2023-02-01T02:41:31;6.00;;;2.95;;
12869;SDS011;6503;48.572;13.460;2023-02-01T02:44:20;5.57;;;3.78;;
12869;SDS011;6503;48.572;13.460;2023-02-01T02:47:13;6.10;;;3.45;;
12869;SDS011;6503;48.572;13.460;2023-02-01T02:49:54;6.10;;;3.25;;
12869;SDS011;6503;48.572;13.460;2023-02-01T02:52:48;9.70;;;3.53;;
12869;SDS011;6503;48.572;13.460;2023-02-01T02:56:02;5.47;;;3.10;;
12869;SDS011;6503;48.572;13.460;2023-02-01T02:58:51;5.60;;;3.30;;
12869;SDS011;6503;48.572;13.460;2023-02-01T03:01:38;6.55;;;3.30;;
12869;SDS011;6503;48.572;13.460;2023-02-01T03:04:23;6.43;;;3.30;;
12869;SDS011;6503;48.572;13.460;2023-02-01T03:06:54;5.38;;;3.22;;
12869;SDS011;6503;48.572;13.460;2023-02-01T03:09:22;6.78;;;3.65;;
12869;SDS011;6503;48.572;13.460;2023-02-01T03:11:55;5.95;;;3.35;;
12869;SDS011;6503;48.572;13.460;2023-02-01T03:14:50;8.35;;;3.42;;
12869;SDS011;6503;48.572;13.460;2023-02-01T03:17:25;6.25;;;3.42;;
12869;SDS011;6503;48.572;13.460;2023-02-01T03:19:57;6.38;;;3.55;;
12869;SDS011;6503;48.572;13.460;2023-02-01T03:22:30;5.93;;;3.10;;
12869;SDS011;6503;48.572;13.460;2023-02-01T03:25:04;5.07;;;3.40;;
12869;SDS011;6503;48.572;13.460;2023-02-01T03:27:35;6.78;;;3.40;;
12869;SDS011;6503;48.572;13.460;2023-02-01T03:30:09;6.93;;;3.70;;
12869;SDS011;6503;48.572;13.460;2023-02-01T03:32:43;6.05;;;3.50;;
12869;SDS011;6503;48.572;13.460;2023-02-01T03:35:28;5.28;;;3.72;;
12869;SDS011;6503;48.572;13.460;2023-02-01T03:38:02;5.03;;;3.50;;
12869;SDS011;6503;48.572;13.460;2023-02-01T03:40:35;5.63;;;3.53;;
12869;SDS011;6503;48.572;13.460;2023-02-01T03:43:05;5.23;;;3.80;;
12869;SDS011;6503;48.572;13.460;2023-02-01T03:45:36;4.47;;;3.15;;
12869;SDS011;6503;48.572;13.460;2023-02-01T03:48:08;6.80;;;3.30;;
12869;SDS011;6503;48.572;13.460;2023-02-01T06:51:38;9.68;;;5.82;;
12869;SDS011;6503;48.572;13.460;2023-02-01T06:54:07;7.10;;;4.82;;
12869;SDS011;6503;48.572;13.460;2023-02-01T06:56:51;8.32;;;4.93;;
12869;SDS011;6503;48.572;13.460;2023-02-01T06:59:25;8.55;;;5.05;;
12869;SDS011;6503;48.572;13.460;2023-02-01T07:01:58;8.30;;;4.68;;
12869;SDS011;6503;48.572;13.460;2023-02-01T07:04:29;7.57;;;4.68;;
12869;SDS011;6503;48.572;13.460;2023-02-01T07:07:12;8.02;;;5.07;;
12869;SDS011;6503;48.572;13.460;2023-02-01T07:09:40;7.50;;;4.57;;
12869;SDS011;6503;48.572;13.460;2023-02-01T07:12:08;9.25;;;5.47;;
12869;SDS011;6503;48.572;13.460;2023-02-01T07:14:43;9.15;;;4.93;;
12869;SDS011;6503;48.572;13.460;2023-02-01T07:17:27;9.90;;;5.50;;
12869;SDS011;6503;48.572;13.460;2023-02-01T07:19:56;9.40;;;5.28;;
12869;SDS011;6503;48.572;13.460;2023-02-01T07:22:36;7.13;;;4.60;;
12869;SDS011;6503;48.572;13.460;2023-02-01T07:25:05;8.23;;;5.05;;
12869;SDS011;6503;48.572;13.460;2023-02-01T07:27:35;9.23;;;4.82;;
12869;SDS011;6503;48.572;13.460;2023-02-01T07:30:14;10.15;;;5.57;;
12869;SDS011;6503;48.572;13.460;2023-02-01T07:32:43;9.90;;;5.20;;
12869;SDS011;6503;48.572;13.460;2023-02-01T07:35:15;8.50;;;5.47;;
12869;SDS011;6503;48.572;13.460;2023-02-01T07:38:00;8.02;;;4.95;;
12869;SDS011;6503;48.572;13.460;2023-02-01T07:40:28;12.52;;;5.75;;
12869;SDS011;6503;48.572;13.460;2023-02-01T07:43:19;7.28;;;5.05;;
12869;SDS011;6503;48.572;13.460;2023-02-01T07:45:50;10.50;;;5.57;;
12869;SDS011;6503;48.572;13.460;2023-02-01T07:48:22;8.52;;;5.07;;
12869;SDS011;6503;48.572;13.460;2023-02-01T07:50:56;12.50;;;6.25;;
12869;SDS011;6503;48.572;13.460;2023-02-01T07:53:26;9.75;;;5.28;;
12869;SDS011;6503;48.572;13.460;2023-02-01T07:55:55;8.05;;;5.18;;
12869;SDS011;6503;48.572;13.460;2023-02-01T07:58:28;11.40;;;6.10;;
12869;SDS011;6503;48.572;13.460;2023-02-01T08:00:56;7.82;;;5.20;;
12869;SDS011;6503;48.572;13.460;2023-02-01T08:03:43;7.90;;;4.45;;
12869;SDS011;6503;48.572;13.460;2023-02-01T08:06:11;7.60;;;4.85;;
12869;SDS011;6503;48.572;13.460;2023-02-01T08:08:43;7.70;;;4.57;;
12869;SDS011;6503;48.572;13.460;2023-02-01T08:11:12;7.97;;;4.63;;
12869;SDS011;6503;48.572;13.460;2023-02-01T08:13:48;7.50;;;4.35;;
12869;SDS011;6503;48.572;13.460;2023-02-01T08:16:26;6.60;;;5.07;;
12869;SDS011;6503;48.572;13.460;2023-02-01T08:18:54;6.65;;;3.95;;
12869;SDS011;6503;48.572;13.460;2023-02-01T08:21:28;5.95;;;3.28;;
12869;SDS011;6503;48.572;13.460;2023-02-01T08:24:14;5.32;;;3.33;;
12869;SDS011;6503;48.572;13.460;2023-02-01T08:26:44;17.55;;;11.30;;
12869;SDS011;6503;48.572;13.460;2023-02-01T08:29:35;5.32;;;4.07;;
12869;SDS011;6503;48.572;13.460;2023-02-01T08:32:03;5.43;;;4.00;;
12869;SDS011;6503;48.572;13.460;2023-02-01T08:34:36;6.47;;;3.58;;
12869;SDS011;6503;48.572;13.460;2023-02-01T08:37:03;5.85;;;3.90;;
12869;SDS011;6503;48.572;13.460;2023-02-01T08:39:39;5.38;;;3.40;;
12869;SDS011;6503;48.572;13.460;2023-02-01T08:42:08;4.88;;;3.45;;
12869;SDS011;6503;48.572;13.460;2023-02-01T08:44:57;5.85;;;3.75;;
12869;SDS011;6503;48.572;13.460;2023-02-01T08:47:26;9.00;;;4.13;;
12869;SDS011;6503;48.572;13.460;2023-02-01T08:49:55;6.22;;;3.67;;
12869;SDS011;6503;48.572;13.460;2023-02-01T08:52:23;4.30;;;3.40;;
12869;SDS011;6503;48.572;13.460;2023-02-01T08:54:58;6.43;;;3.40;;
12869;SDS011;6503;48.572;13.460;2023-02-01T08:57:27;6.00;;;3.20;;
12869;SDS011;6503;48.572;13.460;2023-02-01T08:59:54;4.78;;;3.03;;
12869;SDS011;6503;48.572;13.460;2023-02-01T09:02:30;3.78;;;3.13;;
12869;SDS011;6503;48.572;13.460;2023-02-01T09:04:59;5.05;;;3.42;;
12869;SDS011;6503;48.572;13.460;2023-02-01T09:07:31;3.40;;;2.65;;
12869;SDS011;6503;48.572;13.460;2023-02-01T09:10:01;5.60;;;3.38;;
12869;SDS011;6503;48.572;13.460;2023-02-01T09:12:29;7.55;;;3.50;;
12869;SDS011;6503;48.572;13.460;2023-02-01T09:14:58;6.75;;;3.67;;
12869;SDS011;6503;48.572;13.460;2023-02-01T09:17:26;6.05;;;3.58;;
12869;SDS011;6503;48.572;13.460;2023-02-01T09:19:53;5.53;;;3.45;;
12869;SDS011;6503;48.572;13.460;2023-02-01T09:22:20;6.93;;;4.15;;
12869;SDS011;6503;48.572;13.460;2023-02-01T09:24:48;7.03;;;4.25;;
12869;SDS011;6503;48.572;13.460;2023-02-01T09:27:18;5.93;;;4.03;;
12869;SDS011;6503;48.572;13.460;2023-02-01T09:29:46;6.18;;;3.65;;
12869;SDS011;6503;48.572;13.460;2023-02-01T09:32:18;7.78;;;4.53;;
12869;SDS011;6503;48.572;13.460;2023-02-01T09:34:46;6.55;;;4.97;;
12869;SDS011;6503;48.572;13.460;2023-02-01T09:37:15;9.63;;;4.70;;
12869;SDS011;6503;48.572;13.460;2023-02-01T09:39:44;8.20;;;4.95;;
12869;SDS011;6503;48.572;13.460;2023-02-01T09:42:24;9.00;;;4.95;;
12869;SDS011;6503;48.572;13.460;2023-02-01T09:45:10;7.18;;;4.25;;
12869;SDS011;6503;48.572;13.460;2023-02-01T09:47:46;7.18;;;4.68;;
12869;SDS011;6503;48.572;13.460;2023-02-01T09:50:18;11.65;;;5.40;;
12869;SDS011;6503;48.572;13.460;2023-02-01T09:52:50;9.80;;;5.35;;
12869;SDS011;6503;48.572;13.460;2023-02-01T09:55:23;8.48;;;5.43;;
12869;SDS011;6503;48.572;13.460;2023-02-01T09:57:59;8.07;;;4.95;;
12869;SDS011;6503;48.572;13.460;2023-02-01T10:00:29;5.88;;;3.97;;
12869;SDS011;6503;48.572;13.460;2023-02-01T10:03:03;8.60;;;4.97;;
12869;SDS011;6503;48.572;13.460;2023-02-01T10:05:38;9.20;;;4.72;;
12869;SDS011;6503;48.572;13.460;2023-02-01T10:08:25;7.90;;;4.88;;
12869;SDS011;6503;48.572;13.460;2023-02-01T10:11:07;8.77;;;4.88;;
12869;SDS011;6503;48.572;13.460;2023-02-01T10:13:51;7.53;;;5.47;;
12869;SDS011;6503;48.572;13.460;2023-02-01T10:16:33;9.55;;;5.22;;
12869;SDS011;6503;48.572;13.460;2023-02-01T10:19:15;9.48;;;5.53;;
12869;SDS011;6503;48.572;13.460;2023-02-01T10:21:59;8.68;;;5.03;;
12869;SDS011;6503;48.572;13.460;2023-02-01T10:24:41;8.98;;;5.05;;
12869;SDS011;6503;48.572;13.460;2023-02-01T10:27:16;7.28;;;4.50;;
12869;SDS011;6503;48.572;13.460;2023-02-01T10:29:57;6.97;;;3.85;;
12869;SDS011;6503;48.572;13.460;2023-02-01T10:32:28;4.65;;;3.60;;
12869;SDS011;6503;48.572;13.460;2023-02-01T10:35:01;5.53;;;3.40;;
12869;SDS011;6503;48.572;13.460;2023-02-01T10:40:25;5.65;;;2.88;;
12869;SDS011;6503;48.572;13.460;2023-02-01T10:43:04;4.45;;;2.88;;
12869;SDS011;6503;48.572;13.460;2023-02-01T10:45:33;5.15;;;2.92;;
12869;SDS011;6503;48.572;13.460;2023-02-01T10:48:00;9.53;;;2.97;;
12869;SDS011;6503;48.572;13.460;2023-02-01T10:50:32;4.40;;;2.40;;
12869;SDS011;6503;48.572;13.460;2023-02-01T10:53:05;4.05;;;3.05;;
12869;SDS011;6503;48.572;13.460;2023-02-01T10:55:39;4.85;;;2.80;;
12869;SDS011;6503;48.572;13.460;2023-02-01T10:58:15;7.95;;;4.18;;
12869;SDS011;6503;48.572;13.460;2023-02-01T11:00:47;7.28;;;4.03;;
12869;SDS011;6503;48.572;13.460;2023-02-01T11:06:11;6.50;;;4.00;;
12869;SDS011;6503;48.572;13.460;2023-02-01T11:08:52;8.35;;;4.90;;
12869;SDS011;6503;48.572;13.460;2023-02-01T11:11:23;8.95;;;4.50;;
12869;SDS011;6503;48.572;13.460;2023-02-01T11:13:58;8.07;;;4.72;;
12869;SDS011;6503;48.572;13.460;2023-02-01T11:16:36;8.45;;;4.60;;
12869;SDS011;6503;48.572;13.460;2023-02-01T11:19:06;7.18;;;4.72;;
12869;SDS011;6503;48.572;13.460;2023-02-01T11:21:41;8.57;;;4.43;;
12869;SDS011;6503;48.572;13.460;2023-02-01T11:24:12;8.07;;;4.50;;
12869;SDS011;6503;48.572;13.460;2023-02-01T11:26:55;10.43;;;5.05;;
12869;SDS011;6503;48.572;13.460;2023-02-01T11:29:31;10.57;;;5.20;;
12869;SDS011;6503;48.572;13.460;2023-02-01T11:32:05;7.50;;;4.53;;
12869;SDS011;6503;48.572;13.460;2023-02-01T11:34:36;8.63;;;5.13;;
12869;SDS011;6503;48.572;13.460;2023-02-01T11:37:12;6.97;;;4.57;;
12869;SDS011;6503;48.572;13.460;2023-02-01T11:39:53;8.32;;;4.50;;
12869;SDS011;6503;48.572;13.460;2023-02-01T11:42:22;7.90;;;4.53;;
12869;SDS011;6503;48.572;13.460;2023-02-01T11:48:07;5.30;;;3.40;;
12869;SDS011;6503;48.572;13.460;2023-02-01T11:50:39;4.10;;;2.97;;
12869;SDS011;6503;48.572;13.460;2023-02-01T11:53:20;7.15;;;3.40;;
12869;SDS011;6503;48.572;13.460;2023-02-01T11:56:01;4.88;;;2.75;;
12869;SDS011;6503;48.572;13.460;2023-02-01T11:58:57;5.85;;;3.53;;
12869;SDS011;6503;48.572;13.460;2023-02-01T12:01:38;5.60;;;3.42;;
12869;SDS011;6503;48.572;13.460;2023-02-01T12:07:19;6.22;;;3.25;;
12869;SDS011;6503;48.572;13.460;2023-02-01T12:09:58;9.07;;;3.30;;
12869;SDS011;6503;48.572;13.460;2023-02-01T12:12:40;4.75;;;3.47;;
12869;SDS011;6503;48.572;13.460;2023-02-01T12:15:25;4.35;;;2.35;;
12869;SDS011;6503;48.572;13.460;2023-02-01T12:21:41;6.18;;;2.60;;
12869;SDS011;6503;48.572;13.460;2023-02-01T12:24:30;6.75;;;3.15;;
12869;SDS011;6503;48.572;13.460;2023-02-01T12:30:39;6.60;;;3.00;;
12869;SDS011;6503;48.572;13.460;2023-02-01T12:33:59;4.32;;;1.80;;
12869;SDS011;6503;48.572;13.460;2023-02-01T12:43:09;3.23;;;1.60;;
12869;SDS011;6503;48.572;13.460;2023-02-01T12:46:40;6.45;;;2.38;;
12869;SDS011;6503;48.572;13.460;2023-02-01T12:49:35;6.90;;;2.35;;
12869;SDS011;6503;48.572;13.460;2023-02-01T12:52:44;6.10;;;3.28;;
12869;SDS011;6503;48.572;13.460;2023-02-01T12:55:52;6.68;;;3.13;;
12869;SDS011;6503;48.572;13.460;2023-02-01T12:58:22;3.92;;;2.78;;
12869;SDS011;6503;48.572;13.460;2023-02-01T13:00:57;7.90;;;4.05;;
12869;SDS011;6503;48.572;13.460;2023-02-01T13:06:35;7.85;;;4.40;;
12869;SDS011;6503;48.572;13.460;2023-02-01T13:09:20;8.45;;;4.32;;
12869;SDS011;6503;48.572;13.460;2023-02-01T13:18:16;7.05;;;3.58;;
12869;SDS011;6503;48.572;13.460;2023-02-01T13:20:55;6.47;;;3.40;;
12869;SDS011;6503;48.572;13.460;2023-02-01T13:23:38;7.82;;;3.50;;
12869;SDS011;6503;48.572;13.460;2023-02-01T13:26:07;6.63;;;3.47;;
12869;SDS011;6503;48.572;13.460;2023-02-01T13:28:46;6.95;;;3.00;;
12869;SDS011;6503;48.572;13.460;2023-02-01T13:31:41;6.57;;;3.22;;
12869;SDS011;6503;48.572;13.460;2023-02-01T13:38:22;10.45;;;3.63;;
12869;SDS011;6503;48.572;13.460;2023-02-01T13:41:11;5.82;;;3.50;;
12869;SDS011;6503;48.572;13.460;2023-02-01T14:56:04;9.20;;;3.60;;
12869;SDS011;6503;48.572;13.460;2023-02-01T14:58:50;6.35;;;3.72;;
12869;SDS011;6503;48.572;13.460;2023-02-01T15:08:26;9.25;;;4.90;;
12869;SDS011;6503;48.572;13.460;2023-02-01T15:25:17;10.23;;;3.93;;
12869;SDS011;6503;48.572;13.460;2023-02-01T15:28:02;8.18;;;3.38;;
12869;SDS011;6503;48.572;13.460;2023-02-01T15:30:58;6.35;;;3.33;;
12869;SDS011;6503;48.572;13.460;2023-02-01T15:34:13;9.45;;;3.30;;
12869;SDS011;6503;48.572;13.460;2023-02-01T15:42:40;6.45;;;2.78;;
12869;SDS011;6503;48.572;13.460;2023-02-01T15:45:17;8.45;;;3.00;;
12869;SDS011;6503;48.572;13.460;2023-02-01T15:47:49;8.32;;;2.80;;
12869;SDS011;6503;48.572;13.460;2023-02-01T15:50:18;6.22;;;2.50;;
12869;SDS011;6503;48.572;13.460;2023-02-01T15:55:34;9.63;;;2.92;;
12869;SDS011;6503;48.572;13.460;2023-02-01T15:58:04;4.28;;;2.30;;
12869;SDS011;6503;48.572;13.460;2023-02-01T16:00:39;10.23;;;2.97;;
12869;SDS011;6503;48.572;13.460;2023-02-01T16:03:26;7.15;;;2.75;;
12869;SDS011;6503;48.572;13.460;2023-02-01T16:06:07;7.78;;;2.42;;
12869;SDS011;6503;48.572;13.460;2023-02-01T16:08:48;9.20;;;2.30;;
12869;SDS011;6503;48.572;13.460;2023-02-01T16:11:22;9.35;;;2.97;;
12869;SDS011;6503;48.572;13.460;2023-02-01T16:13:52;8.60;;;3.22;;
12869;SDS011;6503;48.572;13.460;2023-02-01T16:16:28;6.80;;;2.67;;
12869;SDS011;6503;48.572;13.460;2023-02-01T16:19:07;5.07;;;2.25;;
12869;SDS011;6503;48.572;13.460;2023-02-01T16:21:41;6.55;;;2.97;;
12869;SDS011;6503;48.572;13.460;2023-02-01T16:24:12;7.95;;;2.85;;
12869;SDS011;6503;48.572;13.460;2023-02-01T16:26:45;7.00;;;2.50;;
12869;SDS011;6503;48.572;13.460;2023-02-01T16:29:14;5.30;;;2.55;;
12869;SDS011;6503;48.572;13.460;2023-02-01T16:31:45;6.60;;;2.42;;
12869;SDS011;6503;48.572;13.460;2023-02-01T16:34:17;5.65;;;2.17;;
12869;SDS011;6503;48.572;13.460;2023-02-01T16:36:46;5.20;;;2.30;;
12869;SDS011;6503;48.572;13.460;2023-02-01T16:39:20;7.70;;;2.78;;
12869;SDS011;6503;48.572;13.460;2023-02-01T16:41:47;4.63;;;2.33;;
12869;SDS011;6503;48.572;13.460;2023-02-01T16:44:18;7.50;;;2.67;;
12869;SDS011;6503;48.572;13.460;2023-02-01T16:46:45;7.85;;;2.72;;
12869;SDS011;6503;48.572;13.460;2023-02-01T16:49:18;6.28;;;2.95;;
12869;SDS011;6503;48.572;13.460;2023-02-01T16:51:47;10.23;;;2.70;;
12869;SDS011;6503;48.572;13.460;2023-02-01T16:54:15;6.60;;;2.38;;
12869;SDS011;6503;48.572;13.460;2023-02-01T16:56:47;10.30;;;2.05;;
12869;SDS011;6503;48.572;13.460;2023-02-01T16:59:16;6.85;;;2.78;;
12869;SDS011;6503;48.572;13.460;2023-02-01T17:01:44;7.38;;;2.38;;
12869;SDS011;6503;48.572;13.460;2023-02-01T17:04:12;9.60;;;2.53;;
12869;SDS011;6503;48.572;13.460;2023-02-01T17:06:41;10.25;;;2.67;;
12869;SDS011;6503;48.572;13.460;2023-02-01T17:09:13;6.18;;;2.83;;
12869;SDS011;6503;48.572;13.460;2023-02-01T17:11:44;6.32;;;2.47;;
12869;SDS011;6503;48.572;13.460;2023-02-01T17:14:14;5.70;;;2.35;;
12869;SDS011;6503;48.572;13.460;2023-02-01T17:16:43;7.68;;;2.55;;
12869;SDS011;6503;48.572;13.460;2023-02-01T17:19:12;8.35;;;2.97;;
12869;SDS011;6503;48.572;13.460;2023-02-01T17:24:12;4.75;;;2.58;;
12869;SDS011;6503;48.572;13.460;2023-02-01T17:26:40;5.93;;;2.72;;
12869;SDS011;6503;48.572;13.460;2023-02-01T17:29:15;7.47;;;2.65;;
12869;SDS011;6503;48.572;13.460;2023-02-01T17:31:43;8.38;;;2.90;;
12869;SDS011;6503;48.572;13.460;2023-02-01T17:36:42;7.20;;;2.58;;
12869;SDS011;6503;48.572;13.460;2023-02-01T17:39:12;4.32;;;2.60;;
12869;SDS011;6503;48.572;13.460;2023-02-01T17:42:00;5.70;;;2.35;;
12869;SDS011;6503;48.572;13.460;2023-02-01T17:44:31;5.55;;;3.10;;
12869;SDS011;6503;48.572;13.460;2023-02-01T17:46:59;7.72;;;2.47;;
12869;SDS011;6503;48.572;13.460;2023-02-01T17:49:27;5.88;;;2.33;;
12869;SDS011;6503;48.572;13.460;2023-02-01T17:51:54;6.45;;;2.72;;
12869;SDS011;6503;48.572;13.460;2023-02-01T17:54:22;6.10;;;3.00;;
12869;SDS011;6503;48.572;13.460;2023-02-01T17:56:56;5.07;;;1.92;;
12869;SDS011;6503;48.572;13.460;2023-02-01T17:59:27;6.45;;;2.25;;
12869;SDS011;6503;48.572;13.460;2023-02-01T18:01:56;8.23;;;2.60;;
12869;SDS011;6503;48.572;13.460;2023-02-01T18:06:52;5.07;;;2.38;;
12869;SDS011;6503;48.572;13.460;2023-02-01T18:09:19;7.28;;;2.90;;
12869;SDS011;6503;48.572;13.460;2023-02-01T18:11:48;7.60;;;2.70;;
12869;SDS011;6503;48.572;13.460;2023-02-01T18:14:19;7.05;;;2.35;;
12869;SDS011;6503;48.572;13.460;2023-02-01T18:16:46;9.13;;;2.25;;
12869;SDS011;6503;48.572;13.460;2023-02-01T18:22:31;6.60;;;2.60;;
12869;SDS011;6503;48.572;13.460;2023-02-01T18:24:59;5.93;;;2.35;;
12869;SDS011;6503;48.572;13.460;2023-02-01T18:27:26;6.07;;;2.97;;
12869;SDS011;6503;48.572;13.460;2023-02-01T18:30:02;7.40;;;2.53;;
12869;SDS011;6503;48.572;13.460;2023-02-01T18:35:22;10.07;;;2.47;;
12869;SDS011;6503;48.572;13.460;2023-02-01T18:38:02;4.70;;;2.30;;
12869;SDS011;6503;48.572;13.460;2023-02-01T18:40:30;5.53;;;2.40;;
12869;SDS011;6503;48.572;13.460;2023-02-01T18:43:16;6.55;;;2.75;;
12869;SDS011;6503;48.572;13.460;2023-02-01T18:45:57;9.65;;;2.30;;
12869;SDS011;6503;48.572;13.460;2023-02-01T18:48:31;5.82;;;2.40;;
12869;SDS011;6503;48.572;13.460;2023-02-01T18:50:58;6.57;;;1.80;;
12869;SDS011;6503;48.572;13.460;2023-02-01T18:55:58;8.80;;;1.98;;
12869;SDS011;6503;48.572;13.460;2023-02-01T18:58:32;6.47;;;2.30;;
12869;SDS011;6503;48.572;13.460;2023-02-01T19:01:07;5.72;;;1.80;;
12869;SDS011;6503;48.572;13.460;2023-02-01T19:03:43;6.10;;;2.15;;
12869;SDS011;6503;48.572;13.460;2023-02-01T19:06:47;7.65;;;2.00;;
12869;SDS011;6503;48.572;13.460;2023-02-01T19:09:41;6.60;;;2.28;;
12869;SDS011;6503;48.572;13.460;2023-02-01T19:12:13;2.58;;;1.70;;
12869;SDS011;6503;48.572;13.460;2023-02-01T19:14:43;10.38;;;1.60;;
12869;SDS011;6503;48.572;13.460;2023-02-01T19:17:16;7.50;;;2.40;;
12869;SDS011;6503;48.572;13.460;2023-02-01T19:20:08;7.28;;;2.33;;
12869;SDS011;6503;48.572;13.460;2023-02-01T19:23:03;8.45;;;2.30;;
12869;SDS011;6503;48.572;13.460;2023-02-01T19:25:46;7.43;;;2.53;;
12869;SDS011;6503;48.572;13.460;2023-02-01T19:31:27;6.90;;;2.35;;
12869;SDS011;6503;48.572;13.460;2023-02-01T19:34:05;6.75;;;2.15;;
12869;SDS011;6503;48.572;13.460;2023-02-01T19:39:16;5.35;;;2.53;;
12869;SDS011;6503;48.572;13.460;2023-02-01T19:41:47;4.38;;;2.15;;
12869;SDS011;6503;48.572;13.460;2023-02-01T19:44:19;5.60;;;2.50;;
12869;SDS011;6503;48.572;13.460;2023-02-01T19:46:57;10.07;;;2.40;;
12869;SDS011;6503;48.572;13.460;2023-02-01T19:52:16;8.07;;;2.10;;
12869;SDS011;6503;48.572;13.460;2023-02-01T19:54:46;6.78;;;2.03;;
12869;SDS011;6503;48.572;13.460;2023-02-01T20:00:05;6.75;;;2.05;;
12869;SDS011;6503;48.572;13.460;2023-02-01T20:02:47;8.23;;;2.78;;
12869;SDS011;6503;48.572;13.460;2023-02-01T20:05:29;5.80;;;1.90;;
12869;SDS011;6503;48.572;13.460;2023-02-01T20:08:13;5.57;;;2.20;;
12869;SDS011;6503;48.572;13.460;2023-02-01T20:11:05;7.68;;;2.65;;
12869;SDS011;6503;48.572;13.460;2023-02-01T20:13:35;2.90;;;1.80;;
12869;SDS011;6503;48.572;13.460;2023-02-01T20:16:06;4.50;;;2.00;;
12869;SDS011;6503;48.572;13.460;2023-02-01T20:18:47;9.40;;;2.50;;
12869;SDS011;6503;48.572;13.460;2023-02-01T20:21:31;7.82;;;2.38;;
12869;SDS011;6503;48.572;13.460;2023-02-01T20:24:22;4.13;;;2.00;;
12869;SDS011;6503;48.572;13.460;2023-02-01T20:27:02;7.05;;;2.55;;
12869;SDS011;6503;48.572;13.460;2023-02-01T20:29:35;5.15;;;2.10;;
12869;SDS011;6503;48.572;13.460;2023-02-01T20:32:14;5.83;;;2.33;;
12869;SDS011;6503;48.572;13.460;2023-02-01T20:35:24;5.10;;;2.03;;
12869;SDS011;6503;48.572;13.460;2023-02-01T20:37:44;6.78;;;2.47;;
12869;SDS011;6503;48.572;13.460;2023-02-01T20:40:21;4.38;;;2.17;;
12869;SDS011;6503;48.572;13.460;2023-02-01T20:42:50;4.55;;;2.10;;
12869;SDS011;6503;48.572;13.460;2023-02-01T20:51:10;5.63;;;2.33;;
12869;SDS011;6503;48.572;13.460;2023-02-01T20:53:46;7.43;;;2.35;;
12869;SDS011;6503;48.572;13.460;2023-02-01T20:56:30;8.10;;;2.10;;
12869;SDS011;6503;48.572;13.460;2023-02-01T20:59:18;6.18;;;2.15;;
12869;SDS011;6503;48.572;13.460;2023-02-01T21:02:01;4.05;;;2.17;;
12869;SDS011;6503;48.572;13.460;2023-02-01T21:04:28;8.27;;;2.30;;
12869;SDS011;6503;48.572;13.460;2023-02-01T21:06:58;6.88;;;2.38;;
12869;SDS011;6503;48.572;13.460;2023-02-01T21:09:28;8.15;;;2.75;;
12869;SDS011;6503;48.572;13.460;2023-02-01T21:12:13;7.40;;;2.40;;
12869;SDS011;6503;48.572;13.460;2023-02-01T21:14:56;4.60;;;2.03;;
12869;SDS011;6503;48.572;13.460;2023-02-01T21:17:46;8.23;;;2.63;;
12869;SDS011;6503;48.572;13.460;2023-02-01T21:20:45;8.48;;;2.17;;
12869;SDS011;6503;48.572;13.460;2023-02-01T21:23:38;6.55;;;2.15;;
12869;SDS011;6503;48.572;13.460;2023-02-01T21:26:19;6.85;;;2.15;;
12869;SDS011;6503;48.572;13.460;2023-02-01T21:29:08;5.13;;;1.73;;
12869;SDS011;6503;48.572;13.460;2023-02-01T21:31:51;6.63;;;2.30;;
12869;SDS011;6503;48.572;13.460;2023-02-01T21:34:59;10.85;;;2.97;;
12869;SDS011;6503;48.572;13.460;2023-02-01T21:37:49;8.90;;;2.65;;
12869;SDS011;6503;48.572;13.460;2023-02-01T21:40:26;4.85;;;2.03;;
12869;SDS011;6503;48.572;13.460;2023-02-01T21:43:06;9.15;;;2.60;;
12869;SDS011;6503;48.572;13.460;2023-02-01T21:45:40;6.65;;;2.63;;